sensor_id;sensor_type;location;lat;lon;timestamp;temperature;humidity
78184;DHT22;67442;44.570;18.610;2023-05-13T00:02:03;23.00;66.80
78184;DHT22;67442;44.570;18.610;2023-05-13T00:04:33;23.00;66.90
78184;DHT22;67442;44.570;18.610;2023-05-13T00:07:00;23.00;66.90
78184;DHT22;67442;44.570;18.610;2023-05-13T00:09:32;23.00;67.00
78184;DHT22;67442;44.570;18.610;2023-05-13T00:11:59;23.00;67.10
78184;DHT22;67442;44.570;18.610;2023-05-13T00:14:27;23.00;67.10
78184;DHT22;67442;44.570;18.610;2023-05-13T00:16:53;23.00;67.00
78184;DHT22;67442;44.570;18.610;2023-05-13T00:19:22;23.00;67.10
78184;DHT22;67442;44.570;18.610;2023-05-13T00:21:49;23.00;67.10
78184;DHT22;67442;44.570;18.610;2023-05-13T00:24:16;23.00;67.00
78184;DHT22;67442;44.570;18.610;2023-05-13T00:26:48;23.00;67.00
78184;DHT22;67442;44.570;18.610;2023-05-13T00:29:19;23.00;66.90
78184;DHT22;67442;44.570;18.610;2023-05-13T00:31:50;23.00;67.00
78184;DHT22;67442;44.570;18.610;2023-05-13T00:34:17;23.00;67.20
78184;DHT22;67442;44.570;18.610;2023-05-13T00:36:45;23.00;67.10
78184;DHT22;67442;44.570;18.610;2023-05-13T00:39:12;23.00;67.20
78184;DHT22;67442;44.570;18.610;2023-05-13T00:41:40;23.00;67.20
78184;DHT22;67442;44.570;18.610;2023-05-13T00:44:07;23.00;67.10
78184;DHT22;67442;44.570;18.610;2023-05-13T00:46:35;23.00;67.10
78184;DHT22;67442;44.570;18.610;2023-05-13T00:49:05;23.00;67.20
78184;DHT22;67442;44.570;18.610;2023-05-13T00:51:33;23.00;67.10
78184;DHT22;67442;44.570;18.610;2023-05-13T00:54:00;23.00;67.30
78184;DHT22;67442;44.570;18.610;2023-05-13T00:56:27;23.00;67.40
78184;DHT22;67442;44.570;18.610;2023-05-13T00:58:59;23.00;67.40
78184;DHT22;67442;44.570;18.610;2023-05-13T01:01:47;23.00;67.30
78184;DHT22;67442;44.570;18.610;2023-05-13T01:07:22;23.00;67.50
78184;DHT22;67442;44.570;18.610;2023-05-13T01:09:54;23.00;67.60
78184;DHT22;67442;44.570;18.610;2023-05-13T01:12:33;23.00;67.40
78184;DHT22;67442;44.570;18.610;2023-05-13T01:15:07;23.00;67.60
78184;DHT22;67442;44.570;18.610;2023-05-13T01:18:05;23.00;67.50
78184;DHT22;67442;44.570;18.610;2023-05-13T01:20:37;23.00;67.50
78184;DHT22;67442;44.570;18.610;2023-05-13T01:23:07;23.00;67.50
78184;DHT22;67442;44.570;18.610;2023-05-13T01:25:38;23.00;67.60
78184;DHT22;67442;44.570;18.610;2023-05-13T01:28:09;23.00;67.60
78184;DHT22;67442;44.570;18.610;2023-05-13T01:30:36;23.00;67.60
78184;DHT22;67442;44.570;18.610;2023-05-13T01:33:03;23.00;67.80
78184;DHT22;67442;44.570;18.610;2023-05-13T01:35:31;23.00;67.70
78184;DHT22;67442;44.570;18.610;2023-05-13T01:38:04;23.00;67.70
78184;DHT22;67442;44.570;18.610;2023-05-13T01:40:31;23.00;67.80
78184;DHT22;67442;44.570;18.610;2023-05-13T01:42:59;23.00;67.80
78184;DHT22;67442;44.570;18.610;2023-05-13T01:45:30;23.00;67.80
78184;DHT22;67442;44.570;18.610;2023-05-13T01:47:57;23.00;67.80
78184;DHT22;67442;44.570;18.610;2023-05-13T01:50:24;23.00;67.80
78184;DHT22;67442;44.570;18.610;2023-05-13T01:52:52;23.00;67.70
78184;DHT22;67442;44.570;18.610;2023-05-13T01:55:19;23.00;68.50
78184;DHT22;67442;44.570;18.610;2023-05-13T01:57:51;23.00;67.90
78184;DHT22;67442;44.570;18.610;2023-05-13T02:00:18;23.00;67.80
78184;DHT22;67442;44.570;18.610;2023-05-13T02:02:46;23.00;67.80
78184;DHT22;67442;44.570;18.610;2023-05-13T02:05:13;23.00;68.00
78184;DHT22;67442;44.570;18.610;2023-05-13T02:07:41;23.00;68.30
78184;DHT22;67442;44.570;18.610;2023-05-13T02:10:10;23.00;67.90
78184;DHT22;67442;44.570;18.610;2023-05-13T02:12:37;23.00;68.00
78184;DHT22;67442;44.570;18.610;2023-05-13T02:15:08;23.00;68.00
78184;DHT22;67442;44.570;18.610;2023-05-13T02:17:37;23.00;68.00
78184;DHT22;67442;44.570;18.610;2023-05-13T02:20:04;23.00;68.00
78184;DHT22;67442;44.570;18.610;2023-05-13T02:22:32;23.00;68.00
78184;DHT22;67442;44.570;18.610;2023-05-13T02:25:00;23.00;68.10
78184;DHT22;67442;44.570;18.610;2023-05-13T02:27:27;23.00;68.10
78184;DHT22;67442;44.570;18.610;2023-05-13T02:29:54;23.00;68.10
78184;DHT22;67442;44.570;18.610;2023-05-13T02:32:25;23.00;68.10
78184;DHT22;67442;44.570;18.610;2023-05-13T02:34:56;23.00;68.10
78184;DHT22;67442;44.570;18.610;2023-05-13T02:37:28;22.90;68.00
78184;DHT22;67442;44.570;18.610;2023-05-13T02:39:55;23.00;68.00
78184;DHT22;67442;44.570;18.610;2023-05-13T02:42:23;23.00;68.10
78184;DHT22;67442;44.570;18.610;2023-05-13T02:44:54;23.00;68.10
78184;DHT22;67442;44.570;18.610;2023-05-13T02:47:25;23.00;68.00
78184;DHT22;67442;44.570;18.610;2023-05-13T02:49:53;23.00;68.00
78184;DHT22;67442;44.570;18.610;2023-05-13T02:52:20;23.00;68.10
78184;DHT22;67442;44.570;18.610;2023-05-13T02:54:47;23.00;68.10
78184;DHT22;67442;44.570;18.610;2023-05-13T02:57:18;23.00;68.10
78184;DHT22;67442;44.570;18.610;2023-05-13T02:59:45;23.00;68.10
78184;DHT22;67442;44.570;18.610;2023-05-13T03:02:13;23.00;68.10
78184;DHT22;67442;44.570;18.610;2023-05-13T03:04:40;22.90;68.10
78184;DHT22;67442;44.570;18.610;2023-05-13T03:07:07;22.90;68.10
78184;DHT22;67442;44.570;18.610;2023-05-13T03:09:35;23.00;68.10
78184;DHT22;67442;44.570;18.610;2023-05-13T03:12:07;23.00;68.10
78184;DHT22;67442;44.570;18.610;2023-05-13T03:14:35;23.00;68.10
78184;DHT22;67442;44.570;18.610;2023-05-13T03:17:06;22.90;68.10
78184;DHT22;67442;44.570;18.610;2023-05-13T03:19:35;22.90;68.10
78184;DHT22;67442;44.570;18.610;2023-05-13T03:22:03;23.00;68.10
78184;DHT22;67442;44.570;18.610;2023-05-13T03:24:30;23.00;68.20
78184;DHT22;67442;44.570;18.610;2023-05-13T03:26:57;22.90;68.10
78184;DHT22;67442;44.570;18.610;2023-05-13T03:29:28;22.90;68.10
78184;DHT22;67442;44.570;18.610;2023-05-13T03:31:55;23.00;68.30
78184;DHT22;67442;44.570;18.610;2023-05-13T03:34:23;22.90;68.20
78184;DHT22;67442;44.570;18.610;2023-05-13T03:36:50;22.90;68.10
78184;DHT22;67442;44.570;18.610;2023-05-13T03:39:17;22.90;68.20
78184;DHT22;67442;44.570;18.610;2023-05-13T03:41:48;22.90;68.10
78184;DHT22;67442;44.570;18.610;2023-05-13T03:44:15;22.90;68.10
78184;DHT22;67442;44.570;18.610;2023-05-13T03:46:43;22.90;68.10
78184;DHT22;67442;44.570;18.610;2023-05-13T03:49:10;23.00;68.20
78184;DHT22;67442;44.570;18.610;2023-05-13T03:51:37;22.90;68.10
78184;DHT22;67442;44.570;18.610;2023-05-13T03:54:05;22.90;68.10
78184;DHT22;67442;44.570;18.610;2023-05-13T03:56:32;22.90;68.10
78184;DHT22;67442;44.570;18.610;2023-05-13T03:59:00;22.90;68.10
78184;DHT22;67442;44.570;18.610;2023-05-13T04:01:28;22.90;68.10
78184;DHT22;67442;44.570;18.610;2023-05-13T04:03:55;22.90;68.10
78184;DHT22;67442;44.570;18.610;2023-05-13T04:06:26;22.90;68.10
78184;DHT22;67442;44.570;18.610;2023-05-13T04:08:53;22.90;68.10
78184;DHT22;67442;44.570;18.610;2023-05-13T04:11:21;22.90;68.10
78184;DHT22;67442;44.570;18.610;2023-05-13T04:13:52;22.90;68.10
78184;DHT22;67442;44.570;18.610;2023-05-13T04:16:22;22.90;68.10
78184;DHT22;67442;44.570;18.610;2023-05-13T04:18:51;22.90;68.10
78184;DHT22;67442;44.570;18.610;2023-05-13T04:21:18;22.90;68.10
78184;DHT22;67442;44.570;18.610;2023-05-13T04:23:49;22.90;68.10
78184;DHT22;67442;44.570;18.610;2023-05-13T04:26:16;22.90;68.10
78184;DHT22;67442;44.570;18.610;2023-05-13T04:28:49;22.90;68.10
78184;DHT22;67442;44.570;18.610;2023-05-13T04:31:16;22.90;68.10
78184;DHT22;67442;44.570;18.610;2023-05-13T04:33:43;22.90;68.10
78184;DHT22;67442;44.570;18.610;2023-05-13T04:36:11;22.90;68.10
78184;DHT22;67442;44.570;18.610;2023-05-13T04:38:38;22.90;68.10
78184;DHT22;67442;44.570;18.610;2023-05-13T04:41:05;22.90;68.10
78184;DHT22;67442;44.570;18.610;2023-05-13T04:43:36;22.90;68.10
78184;DHT22;67442;44.570;18.610;2023-05-13T04:46:04;22.90;68.10
78184;DHT22;67442;44.570;18.610;2023-05-13T04:48:32;22.90;68.10
78184;DHT22;67442;44.570;18.610;2023-05-13T04:50:58;22.90;68.10
78184;DHT22;67442;44.570;18.610;2023-05-13T04:53:26;22.90;68.10
78184;DHT22;67442;44.570;18.610;2023-05-13T04:55:57;22.90;68.10
78184;DHT22;67442;44.570;18.610;2023-05-13T04:58:26;22.90;68.10
78184;DHT22;67442;44.570;18.610;2023-05-13T05:00:57;22.90;68.10
78184;DHT22;67442;44.570;18.610;2023-05-13T05:03:24;22.90;68.10
78184;DHT22;67442;44.570;18.610;2023-05-13T05:05:55;22.90;68.10
78184;DHT22;67442;44.570;18.610;2023-05-13T05:08:22;22.90;68.10
78184;DHT22;67442;44.570;18.610;2023-05-13T05:10:49;22.90;68.10
78184;DHT22;67442;44.570;18.610;2023-05-13T05:13:18;22.90;68.10
78184;DHT22;67442;44.570;18.610;2023-05-13T05:15:45;22.90;68.10
78184;DHT22;67442;44.570;18.610;2023-05-13T05:18:13;22.90;68.10
78184;DHT22;67442;44.570;18.610;2023-05-13T05:20:40;22.90;68.10
78184;DHT22;67442;44.570;18.610;2023-05-13T05:23:08;22.90;68.10
78184;DHT22;67442;44.570;18.610;2023-05-13T05:25:35;22.90;68.00
78184;DHT22;67442;44.570;18.610;2023-05-13T05:28:07;22.90;68.00
78184;DHT22;67442;44.570;18.610;2023-05-13T05:30:34;22.90;68.10
78184;DHT22;67442;44.570;18.610;2023-05-13T05:33:05;22.90;68.00
78184;DHT22;67442;44.570;18.610;2023-05-13T05:35:32;22.90;68.00
78184;DHT22;67442;44.570;18.610;2023-05-13T05:38:06;22.90;68.00
78184;DHT22;67442;44.570;18.610;2023-05-13T05:40:35;22.90;68.00
78184;DHT22;67442;44.570;18.610;2023-05-13T05:43:05;22.90;68.10
78184;DHT22;67442;44.570;18.610;2023-05-13T05:45:34;22.90;68.10
78184;DHT22;67442;44.570;18.610;2023-05-13T05:48:01;22.90;68.10
78184;DHT22;67442;44.570;18.610;2023-05-13T05:50:28;22.90;68.10
78184;DHT22;67442;44.570;18.610;2023-05-13T05:52:55;22.90;68.10
78184;DHT22;67442;44.570;18.610;2023-05-13T05:55:22;22.90;68.00
78184;DHT22;67442;44.570;18.610;2023-05-13T05:57:49;22.90;68.00
78184;DHT22;67442;44.570;18.610;2023-05-13T06:00:16;22.90;67.90
78184;DHT22;67442;44.570;18.610;2023-05-13T06:02:44;22.90;68.00
78184;DHT22;67442;44.570;18.610;2023-05-13T06:05:11;22.90;67.90
78184;DHT22;67442;44.570;18.610;2023-05-13T06:07:38;22.90;67.60
78184;DHT22;67442;44.570;18.610;2023-05-13T06:10:06;22.90;67.30
78184;DHT22;67442;44.570;18.610;2023-05-13T06:12:34;22.90;67.30
78184;DHT22;67442;44.570;18.610;2023-05-13T06:15:01;22.90;67.20
78184;DHT22;67442;44.570;18.610;2023-05-13T06:17:31;22.90;67.30
78184;DHT22;67442;44.570;18.610;2023-05-13T06:19:59;22.90;67.30
78184;DHT22;67442;44.570;18.610;2023-05-13T06:22:26;22.90;67.20
78184;DHT22;67442;44.570;18.610;2023-05-13T06:24:53;22.90;67.20
78184;DHT22;67442;44.570;18.610;2023-05-13T06:27:24;22.90;68.40
78184;DHT22;67442;44.570;18.610;2023-05-13T06:29:55;22.80;67.60
78184;DHT22;67442;44.570;18.610;2023-05-13T06:32:22;22.70;66.90
78184;DHT22;67442;44.570;18.610;2023-05-13T06:34:53;22.70;66.50
78184;DHT22;67442;44.570;18.610;2023-05-13T06:37:21;22.70;66.30
78184;DHT22;67442;44.570;18.610;2023-05-13T06:39:52;22.70;66.30
78184;DHT22;67442;44.570;18.610;2023-05-13T06:42:19;22.70;66.40
78184;DHT22;67442;44.570;18.610;2023-05-13T06:44:46;22.70;66.60
78184;DHT22;67442;44.570;18.610;2023-05-13T06:47:14;22.70;66.80
78184;DHT22;67442;44.570;18.610;2023-05-13T06:49:45;22.80;67.00
78184;DHT22;67442;44.570;18.610;2023-05-13T06:52:15;22.80;67.10
78184;DHT22;67442;44.570;18.610;2023-05-13T06:54:43;22.80;67.30
78184;DHT22;67442;44.570;18.610;2023-05-13T06:57:10;22.90;67.40
78184;DHT22;67442;44.570;18.610;2023-05-13T06:59:37;22.90;67.50
78184;DHT22;67442;44.570;18.610;2023-05-13T07:02:05;22.90;67.40
78184;DHT22;67442;44.570;18.610;2023-05-13T07:04:34;22.90;67.50
78184;DHT22;67442;44.570;18.610;2023-05-13T07:07:01;22.90;67.60
78184;DHT22;67442;44.570;18.610;2023-05-13T07:09:29;22.90;67.60
78184;DHT22;67442;44.570;18.610;2023-05-13T07:11:56;22.90;67.60
78184;DHT22;67442;44.570;18.610;2023-05-13T07:14:24;23.00;67.60
78184;DHT22;67442;44.570;18.610;2023-05-13T07:16:51;23.00;67.60
78184;DHT22;67442;44.570;18.610;2023-05-13T07:19:19;23.00;67.60
78184;DHT22;67442;44.570;18.610;2023-05-13T07:21:46;23.00;67.70
78184;DHT22;67442;44.570;18.610;2023-05-13T07:24:13;23.00;67.70
78184;DHT22;67442;44.570;18.610;2023-05-13T07:26:44;23.00;67.70
78184;DHT22;67442;44.570;18.610;2023-05-13T07:29:12;23.00;67.70
78184;DHT22;67442;44.570;18.610;2023-05-13T07:31:43;23.00;67.70
78184;DHT22;67442;44.570;18.610;2023-05-13T07:34:15;23.00;67.80
78184;DHT22;67442;44.570;18.610;2023-05-13T07:36:42;23.00;68.00
78184;DHT22;67442;44.570;18.610;2023-05-13T07:39:14;23.00;68.10
78184;DHT22;67442;44.570;18.610;2023-05-13T07:41:40;23.00;68.20
78184;DHT22;67442;44.570;18.610;2023-05-13T07:44:08;23.00;68.20
78184;DHT22;67442;44.570;18.610;2023-05-13T07:46:38;23.10;68.20
78184;DHT22;67442;44.570;18.610;2023-05-13T07:49:05;23.00;68.00
78184;DHT22;67442;44.570;18.610;2023-05-13T07:51:37;23.10;67.90
78184;DHT22;67442;44.570;18.610;2023-05-13T07:54:04;23.10;67.90
78184;DHT22;67442;44.570;18.610;2023-05-13T07:56:32;23.00;67.90
78184;DHT22;67442;44.570;18.610;2023-05-13T07:58:59;23.10;67.90
78184;DHT22;67442;44.570;18.610;2023-05-13T08:01:27;23.00;67.80
78184;DHT22;67442;44.570;18.610;2023-05-13T08:03:54;23.10;68.10
78184;DHT22;67442;44.570;18.610;2023-05-13T08:06:22;23.10;68.20
78184;DHT22;67442;44.570;18.610;2023-05-13T08:08:49;23.10;68.10
78184;DHT22;67442;44.570;18.610;2023-05-13T08:11:16;23.10;68.10
78184;DHT22;67442;44.570;18.610;2023-05-13T08:13:47;23.10;68.10
78184;DHT22;67442;44.570;18.610;2023-05-13T08:16:15;23.00;68.00
78184;DHT22;67442;44.570;18.610;2023-05-13T08:18:42;23.00;68.10
78184;DHT22;67442;44.570;18.610;2023-05-13T08:21:09;23.10;68.10
78184;DHT22;67442;44.570;18.610;2023-05-13T08:23:36;23.10;68.10
78184;DHT22;67442;44.570;18.610;2023-05-13T08:26:07;23.00;67.90
78184;DHT22;67442;44.570;18.610;2023-05-13T08:28:34;23.10;67.90
78184;DHT22;67442;44.570;18.610;2023-05-13T08:31:05;23.10;67.80
78184;DHT22;67442;44.570;18.610;2023-05-13T08:33:36;23.10;67.70
78184;DHT22;67442;44.570;18.610;2023-05-13T08:36:04;23.10;67.70
78184;DHT22;67442;44.570;18.610;2023-05-13T08:38:33;23.10;67.50
78184;DHT22;67442;44.570;18.610;2023-05-13T08:41:03;23.00;67.40
78184;DHT22;67442;44.570;18.610;2023-05-13T08:43:34;23.10;67.40
78184;DHT22;67442;44.570;18.610;2023-05-13T08:46:03;23.10;67.30
78184;DHT22;67442;44.570;18.610;2023-05-13T08:48:37;23.00;67.30
78184;DHT22;67442;44.570;18.610;2023-05-13T08:51:08;23.10;67.30
78184;DHT22;67442;44.570;18.610;2023-05-13T08:53:38;23.00;67.30
78184;DHT22;67442;44.570;18.610;2023-05-13T08:56:06;23.10;67.30
78184;DHT22;67442;44.570;18.610;2023-05-13T08:58:34;23.00;67.40
78184;DHT22;67442;44.570;18.610;2023-05-13T09:01:03;23.10;67.40
78184;DHT22;67442;44.570;18.610;2023-05-13T09:03:32;23.00;67.30
78184;DHT22;67442;44.570;18.610;2023-05-13T09:06:01;23.00;67.30
78184;DHT22;67442;44.570;18.610;2023-05-13T09:08:27;23.10;67.30
78184;DHT22;67442;44.570;18.610;2023-05-13T09:10:55;23.00;67.20
78184;DHT22;67442;44.570;18.610;2023-05-13T09:13:22;23.00;67.20
78184;DHT22;67442;44.570;18.610;2023-05-13T09:15:50;23.10;67.30
78184;DHT22;67442;44.570;18.610;2023-05-13T09:18:21;23.10;67.40
78184;DHT22;67442;44.570;18.610;2023-05-13T09:20:55;23.10;67.40
78184;DHT22;67442;44.570;18.610;2023-05-13T09:23:22;23.10;67.30
78184;DHT22;67442;44.570;18.610;2023-05-13T09:25:49;23.10;67.50
78184;DHT22;67442;44.570;18.610;2023-05-13T09:28:16;23.10;67.40
78184;DHT22;67442;44.570;18.610;2023-05-13T09:30:44;23.10;67.40
78184;DHT22;67442;44.570;18.610;2023-05-13T09:33:19;23.10;67.30
78184;DHT22;67442;44.570;18.610;2023-05-13T09:35:51;23.10;67.40
78184;DHT22;67442;44.570;18.610;2023-05-13T09:38:26;23.00;67.30
78184;DHT22;67442;44.570;18.610;2023-05-13T09:40:59;23.10;67.30
78184;DHT22;67442;44.570;18.610;2023-05-13T09:43:27;23.10;65.70
78184;DHT22;67442;44.570;18.610;2023-05-13T09:46:01;23.00;64.60
78184;DHT22;67442;44.570;18.610;2023-05-13T09:48:33;23.00;65.30
78184;DHT22;67442;44.570;18.610;2023-05-13T09:51:00;23.00;65.40
78184;DHT22;67442;44.570;18.610;2023-05-13T09:53:28;23.00;64.80
78184;DHT22;67442;44.570;18.610;2023-05-13T09:55:57;23.00;64.00
78184;DHT22;67442;44.570;18.610;2023-05-13T09:58:26;23.00;62.90
78184;DHT22;67442;44.570;18.610;2023-05-13T10:00:55;23.00;61.20
78184;DHT22;67442;44.570;18.610;2023-05-13T10:03:22;23.00;60.80
78184;DHT22;67442;44.570;18.610;2023-05-13T10:05:49;23.00;62.20
78184;DHT22;67442;44.570;18.610;2023-05-13T10:08:16;23.00;61.90
78184;DHT22;67442;44.570;18.610;2023-05-13T10:10:43;23.00;59.90
78184;DHT22;67442;44.570;18.610;2023-05-13T10:13:19;23.00;60.70
78184;DHT22;67442;44.570;18.610;2023-05-13T10:15:53;22.90;62.20
78184;DHT22;67442;44.570;18.610;2023-05-13T10:18:21;23.00;62.90
78184;DHT22;67442;44.570;18.610;2023-05-13T10:20:48;23.00;62.20
78184;DHT22;67442;44.570;18.610;2023-05-13T10:23:40;23.00;61.80
78184;DHT22;67442;44.570;18.610;2023-05-13T10:26:08;22.90;62.20
78184;DHT22;67442;44.570;18.610;2023-05-13T10:28:36;22.90;61.30
78184;DHT22;67442;44.570;18.610;2023-05-13T10:31:04;22.90;60.50
78184;DHT22;67442;44.570;18.610;2023-05-13T10:33:35;22.90;60.00
78184;DHT22;67442;44.570;18.610;2023-05-13T10:39:47;22.90;60.40
78184;DHT22;67442;44.570;18.610;2023-05-13T10:44:56;22.90;60.40
78184;DHT22;67442;44.570;18.610;2023-05-13T10:47:23;22.90;60.90
78184;DHT22;67442;44.570;18.610;2023-05-13T10:49:50;22.90;61.90
78184;DHT22;67442;44.570;18.610;2023-05-13T10:52:18;22.90;61.90
78184;DHT22;67442;44.570;18.610;2023-05-13T10:54:59;22.90;62.00
78184;DHT22;67442;44.570;18.610;2023-05-13T10:57:35;22.90;61.70
78184;DHT22;67442;44.570;18.610;2023-05-13T11:02:41;22.90;59.00
78184;DHT22;67442;44.570;18.610;2023-05-13T11:05:18;22.90;58.10
78184;DHT22;67442;44.570;18.610;2023-05-13T11:07:56;22.90;58.10
78184;DHT22;67442;44.570;18.610;2023-05-13T11:10:27;22.80;59.20
78184;DHT22;67442;44.570;18.610;2023-05-13T11:16:04;22.80;59.50
78184;DHT22;67442;44.570;18.610;2023-05-13T11:18:33;22.80;59.60
78184;DHT22;67442;44.570;18.610;2023-05-13T11:21:05;22.80;59.80
78184;DHT22;67442;44.570;18.610;2023-05-13T11:24:00;22.80;60.40
78184;DHT22;67442;44.570;18.610;2023-05-13T11:29:10;22.80;60.50
78184;DHT22;67442;44.570;18.610;2023-05-13T11:31:49;22.80;60.70
78184;DHT22;67442;44.570;18.610;2023-05-13T11:34:21;22.80;60.10
78184;DHT22;67442;44.570;18.610;2023-05-13T11:37:08;22.80;59.10
78184;DHT22;67442;44.570;18.610;2023-05-13T11:39:38;22.80;57.30
78184;DHT22;67442;44.570;18.610;2023-05-13T11:42:07;22.80;56.30
78184;DHT22;67442;44.570;18.610;2023-05-13T11:44:44;22.80;56.50
78184;DHT22;67442;44.570;18.610;2023-05-13T11:47:12;22.80;56.50
78184;DHT22;67442;44.570;18.610;2023-05-13T11:49:41;22.80;56.20
78184;DHT22;67442;44.570;18.610;2023-05-13T11:54:49;22.80;55.00
78184;DHT22;67442;44.570;18.610;2023-05-13T11:57:25;22.80;54.90
78184;DHT22;67442;44.570;18.610;2023-05-13T12:00:05;22.70;55.70
78184;DHT22;67442;44.570;18.610;2023-05-13T12:02:38;22.70;57.00
78184;DHT22;67442;44.570;18.610;2023-05-13T12:05:07;22.70;56.30
78184;DHT22;67442;44.570;18.610;2023-05-13T12:07:34;22.70;56.40
78184;DHT22;67442;44.570;18.610;2023-05-13T12:10:03;22.70;56.70
78184;DHT22;67442;44.570;18.610;2023-05-13T12:12:54;22.70;57.50
78184;DHT22;67442;44.570;18.610;2023-05-13T12:15:25;22.70;58.00
78184;DHT22;67442;44.570;18.610;2023-05-13T12:17:52;22.70;58.10
78184;DHT22;67442;44.570;18.610;2023-05-13T12:20:23;22.70;57.30
78184;DHT22;67442;44.570;18.610;2023-05-13T12:22:54;22.70;56.60
78184;DHT22;67442;44.570;18.610;2023-05-13T12:28:19;22.70;57.70
78184;DHT22;67442;44.570;18.610;2023-05-13T12:31:00;22.70;58.30
78184;DHT22;67442;44.570;18.610;2023-05-13T12:38:57;22.70;59.10
78184;DHT22;67442;44.570;18.610;2023-05-13T12:41:29;22.70;59.20
78184;DHT22;67442;44.570;18.610;2023-05-13T12:44:09;22.70;59.40
78184;DHT22;67442;44.570;18.610;2023-05-13T12:46:50;22.70;59.50
78184;DHT22;67442;44.570;18.610;2023-05-13T12:49:17;22.70;59.60
78184;DHT22;67442;44.570;18.610;2023-05-13T12:51:48;22.70;59.60
78184;DHT22;67442;44.570;18.610;2023-05-13T12:54:16;22.70;59.70
78184;DHT22;67442;44.570;18.610;2023-05-13T12:56:43;22.70;59.80
78184;DHT22;67442;44.570;18.610;2023-05-13T12:59:11;22.70;59.80
78184;DHT22;67442;44.570;18.610;2023-05-13T13:01:39;22.70;59.90
78184;DHT22;67442;44.570;18.610;2023-05-13T13:04:08;22.70;60.00
78184;DHT22;67442;44.570;18.610;2023-05-13T13:06:34;22.70;60.00
78184;DHT22;67442;44.570;18.610;2023-05-13T13:09:01;22.70;60.10
78184;DHT22;67442;44.570;18.610;2023-05-13T13:11:28;22.80;60.20
78184;DHT22;67442;44.570;18.610;2023-05-13T13:13:56;22.70;60.30
78184;DHT22;67442;44.570;18.610;2023-05-13T13:16:23;22.70;60.40
78184;DHT22;67442;44.570;18.610;2023-05-13T13:18:50;22.80;60.70
78184;DHT22;67442;44.570;18.610;2023-05-13T13:21:18;22.80;60.80
78184;DHT22;67442;44.570;18.610;2023-05-13T13:23:45;22.80;60.90
78184;DHT22;67442;44.570;18.610;2023-05-13T13:26:13;22.80;61.10
78184;DHT22;67442;44.570;18.610;2023-05-13T13:54:30;22.60;60.90
78184;DHT22;67442;44.570;18.610;2023-05-13T13:56:58;22.50;63.60
78184;DHT22;67442;44.570;18.610;2023-05-13T13:59:24;22.50;63.40
78184;DHT22;67442;44.570;18.610;2023-05-13T14:01:52;22.60;63.30
78184;DHT22;67442;44.570;18.610;2023-05-13T14:04:19;22.60;63.00
78184;DHT22;67442;44.570;18.610;2023-05-13T14:06:49;22.70;63.00
78184;DHT22;67442;44.570;18.610;2023-05-13T14:09:16;22.70;63.00
78184;DHT22;67442;44.570;18.610;2023-05-13T14:11:47;22.70;63.00
78184;DHT22;67442;44.570;18.610;2023-05-13T14:14:14;22.70;63.00
78184;DHT22;67442;44.570;18.610;2023-05-13T14:16:41;22.80;63.10
78184;DHT22;67442;44.570;18.610;2023-05-13T14:19:09;22.80;63.20
78184;DHT22;67442;44.570;18.610;2023-05-13T14:21:36;22.80;63.20
78184;DHT22;67442;44.570;18.610;2023-05-13T14:24:03;22.80;63.30
78184;DHT22;67442;44.570;18.610;2023-05-13T14:26:34;22.80;63.30
78184;DHT22;67442;44.570;18.610;2023-05-13T14:29:01;22.80;63.30
78184;DHT22;67442;44.570;18.610;2023-05-13T14:31:28;22.80;63.30
78184;DHT22;67442;44.570;18.610;2023-05-13T14:33:56;22.80;63.30
78184;DHT22;67442;44.570;18.610;2023-05-13T14:36:23;22.90;63.50
78184;DHT22;67442;44.570;18.610;2023-05-13T14:38:52;22.90;63.60
78184;DHT22;67442;44.570;18.610;2023-05-13T14:41:19;22.90;63.60
78184;DHT22;67442;44.570;18.610;2023-05-13T14:43:47;22.90;63.60
78184;DHT22;67442;44.570;18.610;2023-05-13T14:46:14;22.90;63.70
78184;DHT22;67442;44.570;18.610;2023-05-13T14:48:41;22.90;63.80
78184;DHT22;67442;44.570;18.610;2023-05-13T14:51:08;22.90;63.90
78184;DHT22;67442;44.570;18.610;2023-05-13T14:53:41;22.90;64.00
78184;DHT22;67442;44.570;18.610;2023-05-13T14:56:08;22.90;64.10
78184;DHT22;67442;44.570;18.610;2023-05-13T14:58:39;22.90;64.20
78184;DHT22;67442;44.570;18.610;2023-05-13T15:01:10;22.90;64.30
78184;DHT22;67442;44.570;18.610;2023-05-13T15:03:38;22.90;64.40
78184;DHT22;67442;44.570;18.610;2023-05-13T15:06:09;22.90;65.40
78184;DHT22;67442;44.570;18.610;2023-05-13T15:08:39;22.90;64.60
78184;DHT22;67442;44.570;18.610;2023-05-13T15:11:07;22.90;64.70
78184;DHT22;67442;44.570;18.610;2023-05-13T15:13:34;22.90;64.90
78184;DHT22;67442;44.570;18.610;2023-05-13T15:16:07;22.90;64.90
78184;DHT22;67442;44.570;18.610;2023-05-13T15:18:39;22.90;64.90
78184;DHT22;67442;44.570;18.610;2023-05-13T15:21:06;22.90;65.00
78184;DHT22;67442;44.570;18.610;2023-05-13T15:23:37;22.90;65.20
78184;DHT22;67442;44.570;18.610;2023-05-13T15:26:04;22.90;65.30
78184;DHT22;67442;44.570;18.610;2023-05-13T15:28:32;23.00;65.40
78184;DHT22;67442;44.570;18.610;2023-05-13T15:30:59;23.00;65.70
78184;DHT22;67442;44.570;18.610;2023-05-13T15:33:31;22.90;65.70
78184;DHT22;67442;44.570;18.610;2023-05-13T15:35:58;23.00;65.90
78184;DHT22;67442;44.570;18.610;2023-05-13T15:38:26;23.00;65.90
78184;DHT22;67442;44.570;18.610;2023-05-13T15:40:52;23.00;66.00
78184;DHT22;67442;44.570;18.610;2023-05-13T15:43:23;23.00;66.00
78184;DHT22;67442;44.570;18.610;2023-05-13T15:45:51;23.00;66.00
78184;DHT22;67442;44.570;18.610;2023-05-13T16:04:45;23.00;65.40
78184;DHT22;67442;44.570;18.610;2023-05-13T16:07:13;22.90;68.00
78184;DHT22;67442;44.570;18.610;2023-05-13T16:09:44;22.90;67.70
78184;DHT22;67442;44.570;18.610;2023-05-13T16:12:15;23.00;67.60
78184;DHT22;67442;44.570;18.610;2023-05-13T16:14:46;23.00;67.50
78184;DHT22;67442;44.570;18.610;2023-05-13T16:17:17;23.00;67.60
78184;DHT22;67442;44.570;18.610;2023-05-13T16:19:44;23.00;67.40
78184;DHT22;67442;44.570;18.610;2023-05-13T16:22:35;23.10;67.40
78184;DHT22;67442;44.570;18.610;2023-05-13T16:25:05;23.10;67.60
78184;DHT22;67442;44.570;18.610;2023-05-13T16:27:32;23.10;67.50
78184;DHT22;67442;44.570;18.610;2023-05-13T16:30:00;23.10;67.70
78184;DHT22;67442;44.570;18.610;2023-05-13T16:32:31;23.00;68.00
78184;DHT22;67442;44.570;18.610;2023-05-13T16:34:59;23.10;68.20
78184;DHT22;67442;44.570;18.610;2023-05-13T16:37:27;23.10;68.10
78184;DHT22;67442;44.570;18.610;2023-05-13T16:39:54;23.10;68.30